Time;durP1;ratioP1;P1;durP2;ratioP2;P2;SDS_P1;SDS_P2;PMS_P1;PMS_P2;Temp;Humidity;BMP_temperature;BMP_pressure;BME280_temperature;BME280_humidity;BME280_pressure;Samples;Min_cycle;Max_cycle;Signal;HPM_P1;HPM_P2
2022/11/27 00:01:56;;;;;;;20.35;11.35;;;;;;;5.28;87.22;100085.34;5001632;28;20129;-81
2022/11/27 00:04:21;;;;;;;23.23;10.77;;;;;;;5.34;87.86;100067.88;5023155;28;20037;-81
2022/11/27 00:06:47;;;;;;;16.13;9.43;;;;;;;5.29;88.17;100072.91;5027786;28;20040;-82
2022/11/27 00:09:14;;;;;;;18.27;11.18;;;;;;;5.28;88.53;100087.16;5009368;28;20029;-81
2022/11/27 00:11:41;;;;;;;17.33;10.13;;;;;;;5.42;87.76;100075.72;5025230;28;20032;-81
2022/11/27 00:14:09;;;;;;;26.48;10.95;;;;;;;5.27;88.27;100072.25;5026070;28;20480;-81
2022/11/27 00:16:35;;;;;;;17.88;10.95;;;;;;;5.06;88.84;100048.38;5025911;28;20042;-81
2022/11/27 00:19:00;;;;;;;24.10;11.25;;;;;;;5.18;87.36;100062.78;5026848;28;20481;-81
2022/11/27 00:21:31;;;;;;;19.85;11.07;;;;;;;5.17;87.65;100061.97;5025808;28;20064;-82
2022/11/27 00:23:58;;;;;;;17.90;9.48;;;;;;;5.29;88.28;100070.25;5002655;28;20053;-81
2022/11/27 00:26:25;;;;;;;15.43;10.00;;;;;;;5.40;88.53;100068.94;5018863;28;20112;-82
2022/11/27 00:28:51;;;;;;;23.05;11.98;;;;;;;5.21;87.99;100065.06;5024329;28;20101;-81
2022/11/27 00:31:25;;;;;;;21.63;10.95;;;;;;;5.12;87.97;100064.34;5028574;28;20140;-81
2022/11/27 00:33:53;;;;;;;21.67;11.32;;;;;;;4.97;88.48;100046.84;5028520;28;20128;-81
2022/11/27 00:36:18;;;;;;;21.17;10.35;;;;;;;5.15;89.60;100048.13;5023275;28;20034;-81
2022/11/27 00:38:44;;;;;;;21.52;12.20;;;;;;;4.98;88.46;100025.47;5029192;28;20080;-81
2022/11/27 00:41:13;;;;;;;18.00;10.65;;;;;;;4.91;89.71;100055.50;5008949;28;20029;-81
2022/11/27 00:43:39;;;;;;;22.63;12.85;;;;;;;4.61;89.45;100028.19;5006702;28;20025;-81
2022/11/27 00:46:04;;;;;;;28.40;14.27;;;;;;;4.35;90.84;100027.81;5026611;28;20025;-81
2022/11/27 00:48:30;;;;;;;28.67;14.90;;;;;;;4.84;89.59;100030.78;5029184;28;20034;-81
2022/11/27 00:51:04;;;;;;;27.85;15.40;;;;;;;4.86;89.17;100004.97;5029433;28;20070;-81
2022/11/27 00:53:30;;;;;;;20.67;10.75;;;;;;;5.01;89.29;100005.78;5031720;28;20030;-81
2022/11/27 00:55:57;;;;;;;19.05;10.05;;;;;;;5.21;89.34;100025.38;5029043;28;20030;-81
2022/11/27 00:58:23;;;;;;;19.60;11.20;;;;;;;5.00;89.33;99996.22;5026918;28;20033;-81
2022/11/27 01:00:55;;;;;;;15.80;10.07;;;;;;;4.92;89.21;99975.13;4992705;28;20132;-81
2022/11/27 01:03:21;;;;;;;25.45;10.70;;;;;;;5.36;88.11;100018.22;5012260;28;20030;-81
2022/11/27 01:05:47;;;;;;;19.92;9.73;;;;;;;5.31;87.94;100013.47;5028110;28;20026;-81
2022/11/27 01:08:12;;;;;;;32.50;12.15;;;;;;;5.15;88.54;100016.34;5027766;28;20098;-81
2022/11/27 01:10:38;;;;;;;17.58;9.77;;;;;;;5.08;89.28;100001.38;5009321;28;20022;-81
2022/11/27 01:13:03;;;;;;;22.58;11.90;;;;;;;5.18;88.35;99993.97;5030146;28;20481;-81
2022/11/27 01:15:28;;;;;;;18.67;12.85;;;;;;;5.00;88.72;99991.72;5006726;28;20471;-81
2022/11/27 01:17:54;;;;;;;22.00;11.23;;;;;;;5.21;88.33;99999.72;5012066;28;20124;-81
2022/11/27 01:20:19;;;;;;;26.75;14.30;;;;;;;4.92;87.79;100012.16;4992189;28;20036;-81
2022/11/27 01:22:44;;;;;;;27.77;13.30;;;;;;;4.78;89.43;99991.84;5027056;28;20041;-81
2022/11/27 01:25:10;;;;;;;23.60;11.32;;;;;;;5.05;88.71;100009.69;5008862;28;20065;-81
2022/11/27 01:27:35;;;;;;;24.90;13.35;;;;;;;4.69;88.58;100003.50;5008455;28;20059;-81
2022/11/27 01:30:00;;;;;;;23.55;12.93;;;;;;;4.92;88.70;100009.50;5009340;28;20037;-81
2022/11/27 01:32:26;;;;;;;19.58;11.98;;;;;;;4.99;89.16;100000.69;5023012;28;20396;-82
2022/11/27 01:34:51;;;;;;;26.23;11.00;;;;;;;5.13;88.29;99983.94;5026413;28;20025;-82
2022/11/27 01:37:17;;;;;;;17.77;10.65;;;;;;;5.10;89.02;99986.97;4994997;28;20029;-81
2022/11/27 01:39:42;;;;;;;19.25;12.32;;;;;;;4.97;87.84;99993.94;5020422;28;20033;-81
2022/11/27 01:42:11;;;;;;;22.05;12.02;;;;;;;4.53;89.17;99994.75;5010895;28;20061;-81
2022/11/27 01:44:36;;;;;;;15.50;10.82;;;;;;;4.85;88.92;99992.75;5028133;28;20030;-82
2022/11/27 01:47:17;;;;;;;19.10;10.38;;;;;;;5.05;88.71;99988.53;5026466;28;20049;-81
2022/11/27 01:49:50;;;;;;;18.52;11.90;;;;;;;5.32;87.65;99990.47;5024019;28;20385;-81
2022/11/27 01:52:20;;;;;;;20.75;11.13;;;;;;;5.32;87.80;99991.31;5023115;28;20037;-81
2022/11/27 01:54:58;;;;;;;18.33;10.45;;;;;;;5.32;87.61;99996.59;5027569;28;20553;-82
2022/11/27 01:57:31;;;;;;;13.32;8.98;;;;;;;5.28;88.09;99987.41;5012708;28;20030;-81
2022/11/27 01:59:59;;;;;;;14.27;9.77;;;;;;;5.20;87.42;99978.72;5003254;28;20033;-81
2022/11/27 02:02:24;;;;;;;18.48;11.88;;;;;;;4.93;87.89;99992.66;5019289;28;20032;-81
2022/11/27 02:04:50;;;;;;;18.50;10.82;;;;;;;5.09;87.52;99969.44;5025660;28;20401;-81
2022/11/27 02:07:16;;;;;;;16.95;11.60;;;;;;;4.41;88.07;99964.47;5006929;28;20033;-81
2022/11/27 02:09:41;;;;;;;27.48;15.02;;;;;;;4.19;89.38;99964.56;5010071;28;20033;-81
2022/11/27 02:12:23;;;;;;;31.67;15.20;;;;;;;4.01;90.26;99983.38;5027731;28;20453;-81
2022/11/27 02:15:07;;;;;;;25.90;12.10;;;;;;;3.97;91.42;99986.56;5026966;28;20038;-81
2022/11/27 02:17:45;;;;;;;22.80;12.00;;;;;;;4.77;90.54;99992.84;5026598;28;20405;-82
2022/11/27 02:20:29;;;;;;;17.67;10.75;;;;;;;5.08;89.49;99986.34;5019580;28;20366;-82
2022/11/27 02:23:19;;;;;;;17.75;10.82;;;;;;;5.21;87.85;99972.44;5016198;28;20033;-82
2022/11/27 02:26:09;;;;;;;20.90;10.20;;;;;;;5.31;87.04;99983.53;5027287;28;20593;-82
2022/11/27 02:29:01;;;;;;;18.27;10.20;;;;;;;5.20;87.27;99970.78;5021015;28;20022;-82
2022/11/27 02:31:39;;;;;;;16.02;9.82;;;;;;;5.40;86.59;99985.06;5021793;28;20045;-82
2022/11/27 02:34:47;;;;;;;15.20;9.00;;;;;;;5.19;86.72;99956.75;5016912;28;20083;-81
2022/11/27 02:37:31;;;;;;;22.25;13.02;;;;;;;4.18;88.24;99953.16;5013872;28;20145;-81
2022/11/27 02:40:16;;;;;;;18.77;11.00;;;;;;;4.41;90.03;99924.03;5020983;28;20128;-81
2022/11/27 02:42:48;;;;;;;18.90;10.07;;;;;;;4.96;88.32;99960.53;5026214;28;20033;-81
2022/11/27 02:45:20;;;;;;;16.10;10.68;;;;;;;4.96;87.68;99926.97;5021759;28;20052;-81
2022/11/27 02:47:49;;;;;;;25.92;13.32;;;;;;;4.61;87.97;99930.38;5023330;28;20025;-81
2022/11/27 02:50:20;;;;;;;19.33;12.27;;;;;;;4.41;89.02;99940.69;5004078;28;20042;-81
2022/11/27 02:52:47;;;;;;;22.08;11.88;;;;;;;4.49;89.60;99932.69;5021205;28;20104;-81
2022/11/27 02:55:17;;;;;;;18.13;10.52;;;;;;;4.79;88.36;99954.63;5025472;28;20025;-82
2022/11/27 02:57:44;;;;;;;17.75;10.32;;;;;;;5.15;87.86;99965.25;5026607;28;20037;-81
2022/11/27 03:00:11;;;;;;;17.85;9.98;;;;;;;5.18;87.07;99951.63;5025429;28;20482;-81
2022/11/27 03:02:43;;;;;;;25.25;12.75;;;;;;;4.75;86.64;99955.19;5026800;28;20044;-82
2022/11/27 03:05:11;;;;;;;20.10;9.65;;;;;;;4.46;88.77;99953.34;5005526;28;20068;-81
2022/11/27 03:08:02;;;;;;;15.95;10.88;;;;;;;4.78;88.13;99902.75;5027592;28;20515;-81
2022/11/27 03:10:39;;;;;;;17.42;10.52;;;;;;;4.94;87.26;99914.91;5018647;28;20436;-81
2022/11/27 03:13:04;;;;;;;17.25;10.45;;;;;;;5.18;86.16;99947.16;5022796;28;20033;-81
2022/11/27 03:15:41;;;;;;;16.65;9.02;;;;;;;5.07;86.94;99945.00;5017795;28;20030;-81
2022/11/27 03:18:33;;;;;;;18.95;9.48;;;;;;;4.99;86.83;99931.88;5023252;28;20025;-81
2022/11/27 03:21:21;;;;;;;18.33;9.25;;;;;;;4.83;86.43;99904.81;5024849;28;20029;-81
2022/11/27 03:23:46;;;;;;;16.55;9.63;;;;;;;4.91;86.61;99910.84;5024399;28;20033;-81
2022/11/27 03:26:12;;;;;;;15.35;9.88;;;;;;;4.96;85.43;99911.09;5025172;28;20099;-81
2022/11/27 03:28:38;;;;;;;17.63;9.57;;;;;;;4.85;85.59;99913.41;5028320;28;20535;-82
2022/11/27 03:31:04;;;;;;;16.65;9.95;;;;;;;4.72;85.16;99894.75;5005041;28;20033;-82
2022/11/27 03:33:29;;;;;;;13.60;9.18;;;;;;;4.76;85.74;99915.31;5025974;28;20017;-81
2022/11/27 03:35:55;;;;;;;19.17;9.38;;;;;;;4.57;86.61;99915.91;5028833;28;20033;-81
2022/11/27 03:38:20;;;;;;;16.15;9.80;;;;;;;4.67;85.56;99916.44;5022577;28;20371;-82
2022/11/27 03:41:16;;;;;;;19.00;9.52;;;;;;;4.75;85.96;99915.50;5007641;28;20124;-81
2022/11/27 03:43:55;;;;;;;15.30;10.63;;;;;;;4.65;85.50;99899.94;5027189;28;20037;-82
2022/11/27 03:46:51;;;;;;;13.45;8.13;;;;;;;4.62;84.92;99889.72;5026028;28;20025;-82
2022/11/27 03:49:39;;;;;;;12.85;9.27;;;;;;;4.66;85.27;99904.22;5025140;28;20041;-82
2022/11/27 03:52:37;;;;;;;19.55;9.13;;;;;;;4.63;85.13;99903.78;5028951;28;20045;-81
2022/11/27 03:55:18;;;;;;;19.98;10.23;;;;;;;4.57;84.24;99906.16;5031489;28;20151;-81
2022/11/27 03:58:04;;;;;;;17.80;11.13;;;;;;;4.44;85.24;99900.69;5026360;28;20029;-81
2022/11/27 04:00:33;;;;;;;;;;;;;;;4.40;85.03;99909.16;5002905;28;20075;-81
2022/11/27 04:03:00;;;;;;;19.27;9.80;;;;;;;4.19;84.80;99886.13;5025218;28;19921;-81
2022/11/27 04:05:26;;;;;;;21.42;10.18;;;;;;;4.39;84.75;99913.63;5027710;28;20485;-81
2022/11/27 04:07:51;;;;;;;17.38;8.75;;;;;;;4.25;85.05;99916.28;4998668;28;20028;-81
2022/11/27 04:10:16;;;;;;;21.90;11.00;;;;;;;4.22;85.34;99911.34;5025361;28;20026;-81
2022/11/27 04:12:42;;;;;;;17.00;10.60;;;;;;;4.30;85.35;99913.91;5027428;28;20382;-82
2022/11/27 04:15:08;;;;;;;19.30;10.48;;;;;;;4.32;84.76;99904.81;4988683;28;20072;-81
2022/11/27 04:17:33;;;;;;;17.80;11.18;;;;;;;4.24;84.49;99904.88;5025219;28;20075;-81
2022/11/27 04:19:59;;;;;;;23.63;10.35;;;;;;;4.25;84.30;99927.66;4993887;28;20039;-81
2022/11/27 04:22:24;;;;;;;24.48;10.90;;;;;;;4.18;84.59;99902.97;5023689;28;20039;-81
2022/11/27 04:24:50;;;;;;;18.58;10.00;;;;;;;4.07;84.41;99903.41;5011305;28;20527;-81
2022/11/27 04:27:15;;;;;;;18.15;11.02;;;;;;;4.00;84.70;99884.00;5008375;28;20133;-82
2022/11/27 04:29:41;;;;;;;22.00;12.25;;;;;;;4.06;84.06;99893.88;5025634;28;20021;-81
2022/11/27 04:32:06;;;;;;;22.48;11.13;;;;;;;4.16;84.85;99909.44;5024223;28;20037;-81
2022/11/27 04:34:32;;;;;;;24.75;12.18;;;;;;;4.19;84.27;99901.97;5025997;28;21175;-82
2022/11/27 04:36:58;;;;;;;20.48;12.80;;;;;;;4.14;84.44;99914.91;5007766;28;20029;-81
2022/11/27 04:39:23;;;;;;;20.95;11.48;;;;;;;4.20;84.62;99911.53;5026899;28;20032;-81
2022/11/27 04:41:49;;;;;;;22.50;11.73;;;;;;;4.12;84.79;99908.16;5031789;28;20030;-81
2022/11/27 04:44:14;;;;;;;21.83;11.98;;;;;;;4.14;84.98;99906.97;5025645;28;20045;-81
2022/11/27 04:46:40;;;;;;;23.58;11.35;;;;;;;4.02;84.31;99883.84;5024499;28;20037;-81
2022/11/27 04:49:05;;;;;;;24.17;13.95;;;;;;;4.01;84.53;99893.56;5029989;28;20079;-81
2022/11/27 04:51:31;;;;;;;21.73;12.57;;;;;;;4.04;84.58;99889.75;5028455;28;20044;-81
2022/11/27 04:53:57;;;;;;;18.67;12.07;;;;;;;3.97;84.48;99887.03;5013269;28;20045;-81
2022/11/27 04:56:23;;;;;;;21.83;12.48;;;;;;;3.93;84.57;99877.00;5020744;28;20029;-81
2022/11/27 04:58:48;;;;;;;20.40;10.95;;;;;;;4.03;84.60;99877.53;5031928;28;20386;-81
2022/11/27 05:01:14;;;;;;;23.55;12.70;;;;;;;3.97;84.46;99880.91;5028338;28;20045;-81
2022/11/27 05:03:40;;;;;;;22.02;12.55;;;;;;;3.91;84.44;99879.78;5024871;28;20060;-81
2022/11/27 05:06:05;;;;;;;22.63;12.57;;;;;;;4.03;84.82;99898.66;5028518;28;20531;-81
2022/11/27 05:08:32;;;;;;;25.30;11.65;;;;;;;3.92;85.04;99884.09;5026447;28;20029;-81
2022/11/27 05:11:05;;;;;;;22.70;12.27;;;;;;;4.04;83.83;99898.47;4995475;28;20022;-81
2022/11/27 05:13:31;;;;;;;20.23;11.73;;;;;;;3.92;84.53;99873.53;5018047;28;20057;-81
2022/11/27 05:15:57;;;;;;;24.90;12.88;;;;;;;3.95;84.49;99878.47;5044796;28;20075;-81
2022/11/27 05:18:22;;;;;;;24.05;12.35;;;;;;;3.87;83.95;99867.97;5026499;28;20036;-81
2022/11/27 05:20:59;;;;;;;22.95;13.13;;;;;;;3.96;83.74;99877.44;5006189;28;20436;-81
2022/11/27 05:23:24;;;;;;;;;;;;;;;3.98;84.28;99878.09;5042291;28;20466;-81
2022/11/27 05:25:50;;;;;;;24.85;13.90;;;;;;;3.89;84.51;99871.22;5028194;28;19924;-81
2022/11/27 05:28:15;;;;;;;21.42;13.77;;;;;;;3.75;84.16;99859.69;5025682;28;20045;-81
2022/11/27 05:30:41;;;;;;;26.70;15.93;;;;;;;3.37;83.97;99857.19;5027756;28;20057;-81
2022/11/27 05:33:06;;;;;;;24.13;13.80;;;;;;;3.71;84.02;99839.88;5009201;28;20033;-81
2022/11/27 05:35:32;;;;;;;21.90;13.30;;;;;;;3.74;84.15;99849.28;5023311;28;20033;-81
2022/11/27 05:37:57;;;;;;;20.98;12.85;;;;;;;3.86;84.45;99862.88;5020582;28;20105;-82
2022/11/27 05:40:23;;;;;;;24.92;13.25;;;;;;;3.77;84.46;99844.47;5025319;28;20407;-81
2022/11/27 05:42:48;;;;;;;21.13;12.95;;;;;;;3.86;83.95;99857.59;5023001;28;20033;-81
2022/11/27 05:45:13;;;;;;;23.10;14.07;;;;;;;3.87;84.07;99856.59;5009542;28;20030;-81
2022/11/27 05:47:39;;;;;;;22.25;12.15;;;;;;;3.64;83.94;99838.16;5029510;28;20439;-81
2022/11/27 05:50:05;;;;;;;26.73;13.00;;;;;;;3.87;83.61;99852.13;5027060;28;20036;-81
2022/11/27 05:52:30;;;;;;;24.02;12.68;;;;;;;3.85;83.42;99850.66;5019745;28;20116;-81
2022/11/27 05:54:56;;;;;;;24.20;13.02;;;;;;;3.74;83.32;99841.34;5006705;28;20246;-81
2022/11/27 05:57:21;;;;;;;22.85;13.27;;;;;;;3.67;83.83;99829.88;5024517;28;20076;-81
2022/11/27 05:59:46;;;;;;;21.98;12.48;;;;;;;3.80;83.00;99832.72;5024885;28;20132;-81
2022/11/27 06:02:12;;;;;;;23.73;12.35;;;;;;;3.77;83.93;99811.97;5021888;28;20083;-81
2022/11/27 06:04:38;;;;;;;28.52;14.40;;;;;;;3.63;83.07;99807.47;5008943;28;20041;-81
2022/11/27 06:07:03;;;;;;;22.20;13.13;;;;;;;3.82;83.64;99825.44;5010333;28;20155;-81
2022/11/27 06:09:29;;;;;;;20.75;12.70;;;;;;;3.23;85.09;99821.88;5029678;28;20029;-81
2022/11/27 06:11:54;;;;;;;22.35;13.18;;;;;;;2.77;86.00;99804.44;5027129;28;21079;-81
2022/11/27 06:14:19;;;;;;;26.60;14.07;;;;;;;2.84;87.49;99822.00;4996152;28;20029;-81
2022/11/27 06:16:45;;;;;;;27.25;13.50;;;;;;;3.11;87.10;99815.38;5024255;28;20041;-81
2022/11/27 06:19:10;;;;;;;27.52;15.95;;;;;;;2.43;86.41;99794.25;5029724;28;20482;-81
2022/11/27 06:21:35;;;;;;;31.38;16.55;;;;;;;2.29;88.08;99819.50;5025793;28;20036;-81
2022/11/27 06:24:02;;;;;;;28.15;15.77;;;;;;;1.93;89.18;99815.69;5029008;28;20040;-81
2022/11/27 06:26:29;;;;;;;33.10;17.38;;;;;;;2.07;89.41;99828.19;5004745;28;20485;-80
2022/11/27 06:28:57;;;;;;;34.30;18.38;;;;;;;2.10;89.05;99827.81;5028865;28;20504;-81
2022/11/27 06:31:25;;;;;;;28.10;17.00;;;;;;;2.24;88.96;99819.22;5027420;28;20036;-81
2022/11/27 06:33:52;;;;;;;30.15;16.58;;;;;;;2.37;89.07;99821.28;5026113;28;20025;-81
2022/11/27 06:36:20;;;;;;;25.75;14.38;;;;;;;3.00;88.45;99805.25;5027432;28;20056;-81
2022/11/27 06:38:45;;;;;;;26.30;14.63;;;;;;;3.33;86.43;99779.41;5029104;28;20048;-81
2022/11/27 06:41:14;;;;;;;26.13;13.23;;;;;;;3.28;86.72;99816.88;5026782;28;20110;-81
2022/11/27 06:43:39;;;;;;;22.13;12.50;;;;;;;3.47;86.85;99811.09;5030357;28;20393;-81
2022/11/27 06:46:06;;;;;;;25.02;13.20;;;;;;;3.33;85.84;99779.41;5008557;28;20033;-81
2022/11/27 06:48:33;;;;;;;24.55;13.07;;;;;;;3.72;85.35;99801.13;5025484;28;20044;-81
2022/11/27 06:51:04;;;;;;;25.45;13.15;;;;;;;3.85;84.83;99801.31;5026638;28;20025;-81
2022/11/27 06:53:30;;;;;;;22.10;12.90;;;;;;;3.86;84.47;99810.88;5031615;28;20025;-81
2022/11/27 06:55:56;;;;;;;22.80;13.35;;;;;;;3.95;84.25;99809.78;5022888;28;20025;-81
2022/11/27 06:58:22;;;;;;;23.98;13.63;;;;;;;3.85;84.10;99796.03;5026888;28;20136;-81
2022/11/27 07:00:47;;;;;;;24.52;13.70;;;;;;;3.76;84.54;99794.47;5004866;28;20028;-81
2022/11/27 07:03:13;;;;;;;22.00;12.13;;;;;;;3.76;84.83;99792.66;4996133;28;20039;-81
2022/11/27 07:05:38;;;;;;;21.02;12.88;;;;;;;3.55;85.36;99765.34;5004961;28;20029;-80
2022/11/27 07:08:04;;;;;;;21.20;13.95;;;;;;;3.84;85.05;99807.59;4993848;28;20029;-81
2022/11/27 07:10:35;;;;;;;26.35;13.20;;;;;;;3.66;84.89;99784.19;5010197;28;20389;-81
2022/11/27 07:13:00;;;;;;;23.48;13.00;;;;;;;3.42;86.34;99773.06;5012673;28;20442;-81
2022/11/27 07:15:26;;;;;;;21.75;12.93;;;;;;;3.48;87.14;99791.63;5026157;28;20140;-81
2022/11/27 07:17:51;;;;;;;28.05;15.55;;;;;;;3.59;85.97;99771.88;5021033;28;20094;-81
2022/11/27 07:20:17;;;;;;;38.92;18.65;;;;;;;3.11;87.33;99767.06;5021313;28;20056;-81
2022/11/27 07:22:42;;;;;;;27.67;13.63;;;;;;;3.32;87.95;99757.47;5007416;28;20029;-80
2022/11/27 07:25:08;;;;;;;41.58;17.58;;;;;;;3.30;87.77;99780.59;4991979;28;20038;-80
2022/11/27 07:27:33;;;;;;;28.40;15.30;;;;;;;3.15;87.41;99779.72;5024013;28;20291;-81
2022/11/27 07:29:58;;;;;;;31.45;15.23;;;;;;;3.23;87.86;99770.94;5018029;28;20037;-81
2022/11/27 07:32:24;;;;;;;37.30;19.05;;;;;;;2.65;89.03;99776.81;4989694;28;20549;-81
2022/11/27 07:34:49;;;;;;;44.65;20.55;;;;;;;3.06;88.06;99785.28;5003776;28;20030;-81
2022/11/27 07:37:14;;;;;;;28.45;14.77;;;;;;;3.56;87.19;99786.25;5001749;28;20045;-81
2022/11/27 07:39:40;;;;;;;38.30;18.15;;;;;;;3.41;85.83;99779.31;5019106;28;20071;-81
2022/11/27 07:42:05;;;;;;;30.27;15.18;;;;;;;3.35;86.22;99749.22;5002327;28;20029;-80
2022/11/27 07:44:30;;;;;;;40.85;22.05;;;;;;;3.35;86.10;99788.78;5007023;28;20086;-81
2022/11/27 07:46:56;;;;;;;26.35;15.07;;;;;;;3.62;86.16;99785.56;5002035;28;20030;-81
2022/11/27 07:49:21;;;;;;;37.60;17.77;;;;;;;2.84;87.08;99766.63;5002569;28;20034;-81
2022/11/27 07:51:46;;;;;;;39.03;19.92;;;;;;;2.77;87.59;99749.06;5000809;28;20022;-81
2022/11/27 07:54:12;;;;;;;29.55;16.75;;;;;;;2.78;89.80;99743.63;5025569;28;20485;-81
2022/11/27 07:56:37;;;;;;;39.65;17.83;;;;;;;2.75;88.32;99722.06;5001601;28;20041;-81
2022/11/27 07:59:03;;;;;;;38.30;18.23;;;;;;;2.85;88.63;99730.56;5022371;28;20040;-81
2022/11/27 08:01:28;;;;;;;29.83;15.20;;;;;;;3.11;88.29;99730.16;5001394;28;20045;-81
2022/11/27 08:03:53;;;;;;;32.53;15.23;;;;;;;3.20;87.70;99729.09;4982998;28;20034;-80
2022/11/27 08:06:21;;;;;;;32.53;17.65;;;;;;;2.84;89.57;99736.84;5009029;28;20041;-81
2022/11/27 08:08:47;;;;;;;31.88;17.38;;;;;;;2.83;89.89;99719.38;5023817;28;20037;-81
2022/11/27 08:11:17;;;;;;;29.27;15.80;;;;;;;3.32;89.01;99748.75;5021452;28;20485;-81
2022/11/27 08:13:42;;;;;;;32.78;16.85;;;;;;;3.39;88.08;99736.47;4996057;28;20036;-81
2022/11/27 08:16:08;;;;;;;37.65;16.92;;;;;;;3.34;87.09;99738.84;5013956;28;20033;-81
2022/11/27 08:18:33;;;;;;;26.15;15.32;;;;;;;3.70;86.25;99752.97;5011336;28;20061;-81
2022/11/27 08:20:59;;;;;;;29.92;14.68;;;;;;;3.73;86.66;99758.69;5021998;28;20033;-82
2022/11/27 08:23:24;;;;;;;28.08;14.95;;;;;;;3.14;88.60;99730.63;5016714;28;20476;-81
2022/11/27 08:25:50;;;;;;;29.50;15.73;;;;;;;3.48;88.14;99732.75;5018305;28;20473;-81
2022/11/27 08:28:15;;;;;;;30.02;16.38;;;;;;;3.38;88.30;99734.84;5021381;28;20035;-81
2022/11/27 08:30:41;;;;;;;28.75;15.45;;;;;;;3.38;88.30;99746.22;5014674;28;20028;-81
2022/11/27 08:33:06;;;;;;;26.02;16.88;;;;;;;3.09;90.81;99753.25;5026360;28;20061;-81
2022/11/27 08:35:32;;;;;;;46.25;19.98;;;;;;;3.40;89.09;99753.94;5025087;28;20128;-81
2022/11/27 08:37:57;;;;;;;26.73;14.68;;;;;;;3.57;88.14;99743.06;5025251;28;20512;-81
2022/11/27 08:40:23;;;;;;;27.80;14.48;;;;;;;3.77;87.56;99749.44;5007521;28;20045;-81
2022/11/27 08:42:48;;;;;;;28.85;19.25;;;;;;;3.75;88.88;99762.00;5018515;28;20079;-81
2022/11/27 08:45:14;;;;;;;23.85;14.20;;;;;;;3.94;87.58;99736.00;5027123;28;20412;-81
2022/11/27 08:47:39;;;;;;;69.32;33.13;;;;;;;3.87;88.38;99758.91;5026925;28;20040;-81
2022/11/27 08:50:05;;;;;;;27.73;16.38;;;;;;;3.80;89.23;99732.38;5029973;28;20048;-81
2022/11/27 08:52:31;;;;;;;31.67;18.67;;;;;;;3.60;90.84;99729.47;5024648;28;20461;-81
2022/11/27 08:54:57;;;;;;;28.83;15.77;;;;;;;3.94;88.86;99733.38;5030407;28;20037;-81
2022/11/27 08:57:22;;;;;;;24.98;13.23;;;;;;;3.71;90.42;99730.84;5021192;28;20037;-81
2022/11/27 08:59:48;;;;;;;27.08;15.32;;;;;;;4.11;89.30;99740.06;5008022;28;20034;-81
2022/11/27 09:02:13;;;;;;;26.40;14.98;;;;;;;4.09;89.50;99742.91;5024151;28;20058;-81
2022/11/27 09:04:38;;;;;;;27.33;14.45;;;;;;;3.77;90.50;99717.75;5013197;28;20033;-82
2022/11/27 09:07:04;;;;;;;24.88;13.20;;;;;;;4.18;88.72;99720.66;5023412;28;20041;-81
2022/11/27 09:09:29;;;;;;;28.58;14.07;;;;;;;4.07;89.10;99728.25;5010377;28;20079;-81
2022/11/27 09:11:54;;;;;;;24.50;13.95;;;;;;;3.87;89.60;99700.81;5027122;28;20474;-81
2022/11/27 09:14:20;;;;;;;25.70;13.50;;;;;;;4.04;90.22;99723.34;5027527;28;20446;-81
2022/11/27 09:16:45;;;;;;;23.42;13.60;;;;;;;4.05;90.40;99717.06;5016348;28;20029;-81
2022/11/27 09:19:11;;;;;;;22.92;13.73;;;;;;;4.03;90.22;99701.41;5003081;28;20476;-80
2022/11/27 09:21:37;;;;;;;28.48;13.68;;;;;;;3.99;89.92;99694.03;5023387;28;20037;-81
2022/11/27 09:24:03;;;;;;;23.42;13.60;;;;;;;3.58;92.86;99691.09;5027474;28;20104;-81
2022/11/27 09:26:29;;;;;;;29.25;14.88;;;;;;;4.06;91.54;99692.28;5023692;28;20497;-81
2022/11/27 09:28:57;;;;;;;23.60;14.48;;;;;;;3.96;91.51;99692.56;5026629;28;20025;-80
2022/11/27 09:31:23;;;;;;;31.15;16.27;;;;;;;3.64;92.87;99675.34;5027849;28;20389;-80
2022/11/27 09:33:49;;;;;;;27.05;15.07;;;;;;;4.12;90.41;99663.31;5023931;28;20041;-81
2022/11/27 09:36:19;;;;;;;21.65;13.93;;;;;;;4.18;90.28;99677.56;5023733;28;20040;-80
2022/11/27 09:38:45;;;;;;;24.80;14.18;;;;;;;4.15;91.87;99691.97;5035596;28;20040;-80
2022/11/27 09:41:23;;;;;;;28.38;15.55;;;;;;;4.11;92.00;99684.59;5026467;28;20037;-80
2022/11/27 09:43:55;;;;;;;28.13;13.93;;;;;;;4.18;91.29;99672.28;5018862;28;21207;-80
2022/11/27 09:46:30;;;;;;;23.05;13.63;;;;;;;4.36;89.85;99678.81;5023641;28;20040;-80
2022/11/27 09:48:58;;;;;;;27.38;13.68;;;;;;;4.30;89.81;99663.69;5024797;28;20083;-80
2022/11/27 09:51:44;;;;;;;20.42;12.63;;;;;;;4.56;88.85;99665.78;5017233;28;20508;-81
2022/11/27 09:54:17;;;;;;;19.08;11.73;;;;;;;4.56;88.60;99656.00;5030062;28;20052;-80
2022/11/27 09:56:48;;;;;;;27.52;17.15;;;;;;;4.37;89.84;99655.81;5028728;28;20026;-80
2022/11/27 09:59:17;;;;;;;29.95;13.05;;;;;;;4.34;89.59;99661.50;5027677;28;20032;-80
2022/11/27 10:01:43;;;;;;;20.13;11.95;;;;;;;4.64;89.14;99664.81;5005435;28;20049;-81
2022/11/27 10:04:12;;;;;;;23.05;12.00;;;;;;;4.59;88.33;99635.50;5022673;28;20063;-80
2022/11/27 10:06:43;;;;;;;27.85;13.07;;;;;;;4.49;89.27;99663.06;5010716;28;20142;-81
2022/11/27 10:09:26;;;;;;;30.98;14.02;;;;;;;4.45;89.18;99650.44;5026605;28;20033;-81
2022/11/27 10:12:07;;;;;;;21.48;11.70;;;;;;;4.53;89.13;99659.03;5018348;28;20020;-81
2022/11/27 10:14:33;;;;;;;22.65;12.85;;;;;;;4.59;88.62;99648.72;5014342;28;20154;-81
2022/11/27 10:17:23;;;;;;;17.60;11.50;;;;;;;4.52;89.04;99643.38;5012173;28;20041;-81
2022/11/27 10:20:31;;;;;;;26.20;12.77;;;;;;;4.53;89.14;99634.44;5001075;28;20034;-81
2022/11/27 10:22:56;;;;;;;20.15;10.82;;;;;;;4.42;89.90;99633.13;5042598;28;20792;-81
2022/11/27 10:25:38;;;;;;;20.20;11.65;;;;;;;4.44;89.25;99604.66;5038887;28;20052;-81
2022/11/27 10:28:26;;;;;;;18.42;11.20;;;;;;;4.76;89.85;99621.78;5032933;28;20119;-81
2022/11/27 10:30:53;;;;;;;26.15;12.77;;;;;;;4.85;88.81;99606.63;5036428;28;20040;-81
2022/11/27 10:33:24;;;;;;;18.05;11.55;;;;;;;4.74;90.18;99623.81;5020885;28;20226;-81
2022/11/27 10:35:51;;;;;;;24.75;12.45;;;;;;;4.73;89.51;99598.41;5016668;28;20373;-81
2022/11/27 10:38:20;;;;;;;20.25;11.88;;;;;;;4.83;88.40;99620.00;4998285;28;20056;-81
2022/11/27 10:40:53;;;;;;;28.90;13.20;;;;;;;4.79;88.34;99618.78;5021750;28;20025;-81
2022/11/27 10:43:21;;;;;;;22.52;11.20;;;;;;;4.65;89.23;99621.50;5025148;28;20037;-81
2022/11/27 10:46:25;;;;;;;21.85;11.85;;;;;;;4.51;90.17;99636.44;5012501;28;20107;-80
2022/11/27 10:48:51;;;;;;;23.40;12.57;;;;;;;4.59;89.44;99623.09;5016410;28;20060;-81
2022/11/27 10:51:21;;;;;;;28.75;12.85;;;;;;;4.74;88.23;99629.09;5019345;28;20072;-81
2022/11/27 10:53:51;;;;;;;23.75;11.07;;;;;;;4.65;89.03;99622.34;5025253;28;20061;-81
2022/11/27 10:56:35;;;;;;;19.67;12.20;;;;;;;4.75;88.57;99627.28;5023671;28;20030;-81
2022/11/27 10:59:08;;;;;;;20.33;11.18;;;;;;;4.68;87.51;99599.97;5022682;28;20056;-81
2022/11/27 11:01:49;;;;;;;17.88;11.73;;;;;;;4.71;88.43;99618.94;5007451;28;20037;-81
2022/11/27 11:04:21;;;;;;;24.17;11.43;;;;;;;4.77;88.67;99604.94;5024158;28;20519;-81
2022/11/27 11:06:48;;;;;;;22.10;11.80;;;;;;;4.71;88.88;99586.38;5026240;28;20029;-81
2022/11/27 11:09:20;;;;;;;18.70;10.57;;;;;;;4.85;87.94;99585.47;5013239;28;20045;-81
2022/11/27 11:11:46;;;;;;;21.13;12.23;;;;;;;4.95;87.66;99583.28;5022952;28;20108;-81
2022/11/27 11:14:25;;;;;;;17.63;10.13;;;;;;;5.08;87.71;99593.94;5006687;28;20473;-82
2022/11/27 11:16:53;;;;;;;20.95;10.80;;;;;;;5.15;87.13;99592.16;5026012;28;20056;-81
2022/11/27 11:19:23;;;;;;;23.65;12.35;;;;;;;5.04;87.15;99579.47;5019525;28;20045;-81
2022/11/27 11:21:48;;;;;;;19.63;11.05;;;;;;;5.10;86.57;99590.09;5018777;28;20347;-81
2022/11/27 11:24:27;;;;;;;19.90;11.50;;;;;;;5.05;87.08;99591.66;5023976;28;20033;-81
2022/11/27 11:27:06;;;;;;;24.65;11.55;;;;;;;5.02;86.58;99560.34;5023115;28;20562;-81
2022/11/27 11:29:50;;;;;;;20.73;12.05;;;;;;;5.08;86.67;99538.38;5001159;28;20029;-81
2022/11/27 11:32:19;;;;;;;47.67;25.60;;;;;;;5.29;86.14;99562.91;5002464;28;20030;-82
2022/11/27 11:34:52;;;;;;;22.40;13.65;;;;;;;5.47;86.49;99558.91;5035902;28;20090;-81
2022/11/27 11:37:30;;;;;;;36.55;18.48;;;;;;;5.59;85.69;99547.53;5015920;28;20037;-81